sensor_id;sensor_type;location;lat;lon;timestamp;P1;durP1;ratioP1;P2;durP2;ratioP2
53108;SDS011;39007;53.090;6.074;2022-10-31T00:02:26;17.50;;;11.35;;
53108;SDS011;39007;53.090;6.074;2022-10-31T00:04:52;22.60;;;12.13;;
53108;SDS011;39007;53.090;6.074;2022-10-31T00:07:18;19.42;;;12.13;;
53108;SDS011;39007;53.090;6.074;2022-10-31T00:09:44;21.13;;;12.70;;
53108;SDS011;39007;53.090;6.074;2022-10-31T00:12:10;21.58;;;12.68;;
53108;SDS011;39007;53.090;6.074;2022-10-31T00:14:36;28.88;;;13.30;;
53108;SDS011;39007;53.090;6.074;2022-10-31T00:17:03;22.63;;;12.55;;
53108;SDS011;39007;53.090;6.074;2022-10-31T00:19:29;22.20;;;12.18;;
53108;SDS011;39007;53.090;6.074;2022-10-31T00:21:55;21.00;;;12.73;;
53108;SDS011;39007;53.090;6.074;2022-10-31T00:24:21;20.08;;;11.73;;
53108;SDS011;39007;53.090;6.074;2022-10-31T00:26:47;20.42;;;12.27;;
53108;SDS011;39007;53.090;6.074;2022-10-31T00:29:13;21.42;;;12.85;;
53108;SDS011;39007;53.090;6.074;2022-10-31T00:31:39;23.63;;;13.27;;
53108;SDS011;39007;53.090;6.074;2022-10-31T00:34:05;25.08;;;15.10;;
53108;SDS011;39007;53.090;6.074;2022-10-31T00:36:32;22.25;;;12.85;;
53108;SDS011;39007;53.090;6.074;2022-10-31T00:38:58;23.85;;;14.13;;
53108;SDS011;39007;53.090;6.074;2022-10-31T00:41:24;19.00;;;12.07;;
53108;SDS011;39007;53.090;6.074;2022-10-31T00:43:50;25.50;;;13.27;;
53108;SDS011;39007;53.090;6.074;2022-10-31T00:46:16;19.77;;;12.65;;
53108;SDS011;39007;53.090;6.074;2022-10-31T00:48:42;21.90;;;12.95;;
53108;SDS011;39007;53.090;6.074;2022-10-31T00:51:09;18.88;;;12.35;;
53108;SDS011;39007;53.090;6.074;2022-10-31T00:53:35;22.20;;;13.30;;
53108;SDS011;39007;53.090;6.074;2022-10-31T00:56:01;23.63;;;13.55;;
53108;SDS011;39007;53.090;6.074;2022-10-31T00:58:27;21.10;;;13.63;;
53108;SDS011;39007;53.090;6.074;2022-10-31T01:00:53;21.60;;;13.02;;
53108;SDS011;39007;53.090;6.074;2022-10-31T01:03:23;21.63;;;12.73;;
53108;SDS011;39007;53.090;6.074;2022-10-31T01:06:03;20.23;;;12.85;;
53108;SDS011;39007;53.090;6.074;2022-10-31T01:08:30;22.65;;;14.43;;
53108;SDS011;39007;53.090;6.074;2022-10-31T01:13:25;23.80;;;14.30;;
53108;SDS011;39007;53.090;6.074;2022-10-31T01:15:55;23.92;;;14.25;;
53108;SDS011;39007;53.090;6.074;2022-10-31T01:18:21;20.42;;;14.05;;
53108;SDS011;39007;53.090;6.074;2022-10-31T01:20:56;18.25;;;13.40;;
53108;SDS011;39007;53.090;6.074;2022-10-31T01:23:22;21.25;;;13.65;;
53108;SDS011;39007;53.090;6.074;2022-10-31T01:25:48;22.58;;;14.13;;
53108;SDS011;39007;53.090;6.074;2022-10-31T01:28:14;20.02;;;13.95;;
53108;SDS011;39007;53.090;6.074;2022-10-31T01:30:40;21.83;;;14.07;;
53108;SDS011;39007;53.090;6.074;2022-10-31T01:33:06;20.92;;;13.93;;
53108;SDS011;39007;53.090;6.074;2022-10-31T01:35:32;23.15;;;14.57;;
53108;SDS011;39007;53.090;6.074;2022-10-31T01:37:58;21.50;;;13.77;;
53108;SDS011;39007;53.090;6.074;2022-10-31T01:40:28;21.38;;;13.10;;
53108;SDS011;39007;53.090;6.074;2022-10-31T01:42:55;23.65;;;14.35;;
53108;SDS011;39007;53.090;6.074;2022-10-31T01:45:21;22.17;;;15.13;;
53108;SDS011;39007;53.090;6.074;2022-10-31T01:47:47;27.17;;;15.55;;
53108;SDS011;39007;53.090;6.074;2022-10-31T01:50:26;31.70;;;15.77;;
53108;SDS011;39007;53.090;6.074;2022-10-31T01:52:53;27.73;;;15.93;;
53108;SDS011;39007;53.090;6.074;2022-10-31T01:55:25;26.27;;;14.77;;
53108;SDS011;39007;53.090;6.074;2022-10-31T01:57:53;25.52;;;15.73;;
53108;SDS011;39007;53.090;6.074;2022-10-31T02:00:21;24.52;;;14.63;;
53108;SDS011;39007;53.090;6.074;2022-10-31T02:02:47;22.00;;;13.77;;
53108;SDS011;39007;53.090;6.074;2022-10-31T02:05:24;23.20;;;14.75;;
53108;SDS011;39007;53.090;6.074;2022-10-31T02:07:53;22.80;;;15.05;;
53108;SDS011;39007;53.090;6.074;2022-10-31T02:10:21;27.85;;;15.82;;
53108;SDS011;39007;53.090;6.074;2022-10-31T02:12:48;25.00;;;15.27;;
53108;SDS011;39007;53.090;6.074;2022-10-31T02:15:14;23.73;;;15.48;;
53108;SDS011;39007;53.090;6.074;2022-10-31T02:17:40;21.65;;;15.43;;
53108;SDS011;39007;53.090;6.074;2022-10-31T02:22:37;21.58;;;14.73;;
53108;SDS011;39007;53.090;6.074;2022-10-31T02:25:21;22.75;;;15.05;;
53108;SDS011;39007;53.090;6.074;2022-10-31T02:28:33;23.67;;;15.27;;
53108;SDS011;39007;53.090;6.074;2022-10-31T02:36:11;20.48;;;14.27;;
53108;SDS011;39007;53.090;6.074;2022-10-31T02:38:44;21.20;;;14.45;;
53108;SDS011;39007;53.090;6.074;2022-10-31T02:46:14;20.67;;;13.40;;
53108;SDS011;39007;53.090;6.074;2022-10-31T02:48:43;19.35;;;12.95;;
53108;SDS011;39007;53.090;6.074;2022-10-31T02:51:10;24.42;;;14.02;;
53108;SDS011;39007;53.090;6.074;2022-10-31T02:53:37;22.38;;;13.55;;
53108;SDS011;39007;53.090;6.074;2022-10-31T02:56:14;21.13;;;13.60;;
53108;SDS011;39007;53.090;6.074;2022-10-31T02:58:51;20.05;;;13.90;;
53108;SDS011;39007;53.090;6.074;2022-10-31T03:04:02;19.92;;;13.18;;
53108;SDS011;39007;53.090;6.074;2022-10-31T03:09:25;18.75;;;13.00;;
53108;SDS011;39007;53.090;6.074;2022-10-31T03:11:56;18.70;;;13.23;;
53108;SDS011;39007;53.090;6.074;2022-10-31T03:14:28;20.77;;;13.57;;
53108;SDS011;39007;53.090;6.074;2022-10-31T03:16:57;17.90;;;12.68;;
53108;SDS011;39007;53.090;6.074;2022-10-31T03:19:26;20.90;;;12.90;;
53108;SDS011;39007;53.090;6.074;2022-10-31T03:21:56;15.57;;;12.48;;
53108;SDS011;39007;53.090;6.074;2022-10-31T03:24:24;20.85;;;13.32;;
53108;SDS011;39007;53.090;6.074;2022-10-31T03:26:53;18.10;;;12.60;;
53108;SDS011;39007;53.090;6.074;2022-10-31T03:29:22;19.90;;;12.55;;
53108;SDS011;39007;53.090;6.074;2022-10-31T03:31:56;17.70;;;12.30;;
53108;SDS011;39007;53.090;6.074;2022-10-31T03:34:23;17.88;;;12.40;;
53108;SDS011;39007;53.090;6.074;2022-10-31T03:36:50;18.15;;;12.23;;
53108;SDS011;39007;53.090;6.074;2022-10-31T03:39:18;18.30;;;12.35;;
53108;SDS011;39007;53.090;6.074;2022-10-31T03:41:46;18.58;;;12.45;;
53108;SDS011;39007;53.090;6.074;2022-10-31T03:44:16;19.30;;;12.40;;
53108;SDS011;39007;53.090;6.074;2022-10-31T03:46:43;18.80;;;12.45;;
53108;SDS011;39007;53.090;6.074;2022-10-31T03:49:09;17.63;;;12.38;;
53108;SDS011;39007;53.090;6.074;2022-10-31T03:51:44;17.10;;;12.40;;
53108;SDS011;39007;53.090;6.074;2022-10-31T03:54:22;22.02;;;13.43;;
53108;SDS011;39007;53.090;6.074;2022-10-31T03:56:53;18.15;;;13.02;;
53108;SDS011;39007;53.090;6.074;2022-10-31T04:01:48;16.15;;;12.38;;
53108;SDS011;39007;53.090;6.074;2022-10-31T04:04:15;23.48;;;13.25;;
53108;SDS011;39007;53.090;6.074;2022-10-31T04:06:42;18.40;;;12.40;;
53108;SDS011;39007;53.090;6.074;2022-10-31T04:09:09;22.52;;;13.25;;
53108;SDS011;39007;53.090;6.074;2022-10-31T04:11:36;16.27;;;12.05;;
53108;SDS011;39007;53.090;6.074;2022-10-31T04:14:03;16.65;;;12.05;;
53108;SDS011;39007;53.090;6.074;2022-10-31T04:16:30;17.88;;;12.45;;
53108;SDS011;39007;53.090;6.074;2022-10-31T04:18:56;16.27;;;11.95;;
53108;SDS011;39007;53.090;6.074;2022-10-31T04:21:29;20.17;;;13.57;;
53108;SDS011;39007;53.090;6.074;2022-10-31T04:23:55;16.85;;;12.48;;
53108;SDS011;39007;53.090;6.074;2022-10-31T04:26:22;17.58;;;13.00;;
53108;SDS011;39007;53.090;6.074;2022-10-31T04:28:48;18.05;;;12.77;;
53108;SDS011;39007;53.090;6.074;2022-10-31T04:31:14;21.70;;;13.20;;
53108;SDS011;39007;53.090;6.074;2022-10-31T04:33:40;18.55;;;13.00;;
53108;SDS011;39007;53.090;6.074;2022-10-31T04:36:06;18.40;;;12.15;;
53108;SDS011;39007;53.090;6.074;2022-10-31T04:38:33;21.08;;;12.90;;
53108;SDS011;39007;53.090;6.074;2022-10-31T04:40:59;18.88;;;13.50;;
53108;SDS011;39007;53.090;6.074;2022-10-31T04:43:25;21.10;;;13.57;;
53108;SDS011;39007;53.090;6.074;2022-10-31T04:45:51;20.58;;;14.10;;
53108;SDS011;39007;53.090;6.074;2022-10-31T04:48:17;20.65;;;13.20;;
53108;SDS011;39007;53.090;6.074;2022-10-31T04:50:43;19.35;;;13.90;;
53108;SDS011;39007;53.090;6.074;2022-10-31T04:53:10;19.60;;;14.43;;
53108;SDS011;39007;53.090;6.074;2022-10-31T04:55:36;22.13;;;14.25;;
53108;SDS011;39007;53.090;6.074;2022-10-31T04:58:02;23.55;;;14.82;;
53108;SDS011;39007;53.090;6.074;2022-10-31T05:00:28;18.55;;;13.10;;
53108;SDS011;39007;53.090;6.074;2022-10-31T05:02:55;19.05;;;13.77;;
53108;SDS011;39007;53.090;6.074;2022-10-31T05:05:23;20.42;;;14.07;;
53108;SDS011;39007;53.090;6.074;2022-10-31T05:07:50;22.85;;;15.20;;
53108;SDS011;39007;53.090;6.074;2022-10-31T05:10:23;20.40;;;14.93;;
53108;SDS011;39007;53.090;6.074;2022-10-31T05:12:53;24.83;;;14.80;;
53108;SDS011;39007;53.090;6.074;2022-10-31T05:15:19;21.52;;;14.43;;
53108;SDS011;39007;53.090;6.074;2022-10-31T05:17:46;20.05;;;15.30;;
53108;SDS011;39007;53.090;6.074;2022-10-31T05:20:13;19.92;;;15.38;;
53108;SDS011;39007;53.090;6.074;2022-10-31T05:22:42;23.00;;;15.40;;
53108;SDS011;39007;53.090;6.074;2022-10-31T05:25:09;21.77;;;14.88;;
53108;SDS011;39007;53.090;6.074;2022-10-31T05:27:38;24.48;;;15.13;;
53108;SDS011;39007;53.090;6.074;2022-10-31T05:30:04;24.80;;;15.80;;
53108;SDS011;39007;53.090;6.074;2022-10-31T05:32:36;22.55;;;15.05;;
53108;SDS011;39007;53.090;6.074;2022-10-31T05:35:02;23.08;;;16.48;;
53108;SDS011;39007;53.090;6.074;2022-10-31T05:37:28;19.65;;;14.98;;
53108;SDS011;39007;53.090;6.074;2022-10-31T05:39:54;22.25;;;15.88;;
53108;SDS011;39007;53.090;6.074;2022-10-31T05:42:20;23.65;;;16.13;;
53108;SDS011;39007;53.090;6.074;2022-10-31T05:44:46;23.80;;;16.05;;
53108;SDS011;39007;53.090;6.074;2022-10-31T05:47:12;19.58;;;14.40;;
53108;SDS011;39007;53.090;6.074;2022-10-31T05:49:38;21.38;;;15.65;;
53108;SDS011;39007;53.090;6.074;2022-10-31T05:52:04;20.30;;;14.93;;
53108;SDS011;39007;53.090;6.074;2022-10-31T05:54:31;21.92;;;15.02;;
53108;SDS011;39007;53.090;6.074;2022-10-31T05:56:57;22.50;;;14.45;;
53108;SDS011;39007;53.090;6.074;2022-10-31T05:59:23;21.35;;;14.35;;
53108;SDS011;39007;53.090;6.074;2022-10-31T06:01:49;20.05;;;15.68;;
53108;SDS011;39007;53.090;6.074;2022-10-31T06:04:15;18.92;;;14.68;;
53108;SDS011;39007;53.090;6.074;2022-10-31T06:06:41;20.63;;;14.75;;
53108;SDS011;39007;53.090;6.074;2022-10-31T06:09:07;18.15;;;13.90;;
53108;SDS011;39007;53.090;6.074;2022-10-31T06:11:33;22.52;;;15.13;;
53108;SDS011;39007;53.090;6.074;2022-10-31T06:13:59;19.05;;;14.55;;
53108;SDS011;39007;53.090;6.074;2022-10-31T06:16:25;19.23;;;14.60;;
53108;SDS011;39007;53.090;6.074;2022-10-31T06:18:51;22.33;;;14.60;;
53108;SDS011;39007;53.090;6.074;2022-10-31T06:21:17;19.15;;;13.98;;
53108;SDS011;39007;53.090;6.074;2022-10-31T06:23:44;17.25;;;14.18;;
53108;SDS011;39007;53.090;6.074;2022-10-31T06:26:10;21.55;;;14.82;;
53108;SDS011;39007;53.090;6.074;2022-10-31T06:28:36;23.30;;;15.18;;
53108;SDS011;39007;53.090;6.074;2022-10-31T06:31:02;20.33;;;15.25;;
53108;SDS011;39007;53.090;6.074;2022-10-31T06:33:28;21.25;;;14.88;;
53108;SDS011;39007;53.090;6.074;2022-10-31T06:35:54;18.88;;;14.27;;
53108;SDS011;39007;53.090;6.074;2022-10-31T06:38:20;18.60;;;13.00;;
53108;SDS011;39007;53.090;6.074;2022-10-31T06:40:46;19.85;;;13.98;;
53108;SDS011;39007;53.090;6.074;2022-10-31T06:43:12;19.33;;;14.32;;
53108;SDS011;39007;53.090;6.074;2022-10-31T06:45:40;20.45;;;14.32;;
53108;SDS011;39007;53.090;6.074;2022-10-31T06:48:06;19.23;;;14.40;;
53108;SDS011;39007;53.090;6.074;2022-10-31T06:50:32;19.50;;;14.32;;
53108;SDS011;39007;53.090;6.074;2022-10-31T06:52:58;19.73;;;14.90;;
53108;SDS011;39007;53.090;6.074;2022-10-31T06:55:24;19.80;;;14.85;;
53108;SDS011;39007;53.090;6.074;2022-10-31T06:57:52;18.42;;;14.13;;
53108;SDS011;39007;53.090;6.074;2022-10-31T07:00:18;19.80;;;13.88;;
53108;SDS011;39007;53.090;6.074;2022-10-31T07:02:57;20.08;;;14.55;;
53108;SDS011;39007;53.090;6.074;2022-10-31T07:05:24;17.85;;;13.57;;
53108;SDS011;39007;53.090;6.074;2022-10-31T07:07:54;17.27;;;14.00;;
53108;SDS011;39007;53.090;6.074;2022-10-31T07:10:20;16.98;;;14.40;;
53108;SDS011;39007;53.090;6.074;2022-10-31T07:12:46;19.25;;;14.60;;
53108;SDS011;39007;53.090;6.074;2022-10-31T07:15:12;18.92;;;13.82;;
53108;SDS011;39007;53.090;6.074;2022-10-31T07:17:38;19.42;;;14.40;;
53108;SDS011;39007;53.090;6.074;2022-10-31T07:20:05;19.33;;;14.27;;
53108;SDS011;39007;53.090;6.074;2022-10-31T07:22:34;20.02;;;14.15;;
53108;SDS011;39007;53.090;6.074;2022-10-31T07:25:00;18.58;;;13.35;;
53108;SDS011;39007;53.090;6.074;2022-10-31T07:27:26;19.23;;;13.68;;
53108;SDS011;39007;53.090;6.074;2022-10-31T07:29:52;19.05;;;14.05;;
53108;SDS011;39007;53.090;6.074;2022-10-31T07:32:19;20.85;;;14.73;;
53108;SDS011;39007;53.090;6.074;2022-10-31T07:34:45;17.75;;;14.23;;
53108;SDS011;39007;53.090;6.074;2022-10-31T07:37:11;19.40;;;13.68;;
53108;SDS011;39007;53.090;6.074;2022-10-31T07:39:37;21.45;;;14.77;;
53108;SDS011;39007;53.090;6.074;2022-10-31T07:42:03;17.58;;;14.27;;
53108;SDS011;39007;53.090;6.074;2022-10-31T07:44:29;17.95;;;14.43;;
53108;SDS011;39007;53.090;6.074;2022-10-31T07:46:55;16.70;;;13.82;;
53108;SDS011;39007;53.090;6.074;2022-10-31T07:49:21;16.52;;;13.57;;
53108;SDS011;39007;53.090;6.074;2022-10-31T07:51:50;15.90;;;14.00;;
53108;SDS011;39007;53.090;6.074;2022-10-31T07:54:16;17.52;;;13.75;;
53108;SDS011;39007;53.090;6.074;2022-10-31T07:56:42;18.63;;;13.15;;
53108;SDS011;39007;53.090;6.074;2022-10-31T07:59:08;16.23;;;12.98;;
53108;SDS011;39007;53.090;6.074;2022-10-31T08:01:34;16.90;;;13.02;;
53108;SDS011;39007;53.090;6.074;2022-10-31T08:04:00;18.42;;;12.98;;
53108;SDS011;39007;53.090;6.074;2022-10-31T08:06:27;17.00;;;13.35;;
53108;SDS011;39007;53.090;6.074;2022-10-31T08:08:53;18.27;;;13.40;;
53108;SDS011;39007;53.090;6.074;2022-10-31T08:11:19;19.75;;;13.25;;
53108;SDS011;39007;53.090;6.074;2022-10-31T08:13:46;16.50;;;12.90;;
53108;SDS011;39007;53.090;6.074;2022-10-31T08:16:12;17.73;;;13.52;;
53108;SDS011;39007;53.090;6.074;2022-10-31T08:18:38;17.27;;;12.98;;
53108;SDS011;39007;53.090;6.074;2022-10-31T08:21:04;16.90;;;13.38;;
53108;SDS011;39007;53.090;6.074;2022-10-31T08:23:30;15.63;;;12.38;;
53108;SDS011;39007;53.090;6.074;2022-10-31T08:25:57;18.50;;;12.98;;
53108;SDS011;39007;53.090;6.074;2022-10-31T08:28:23;16.05;;;12.77;;
53108;SDS011;39007;53.090;6.074;2022-10-31T08:30:49;16.63;;;13.07;;
53108;SDS011;39007;53.090;6.074;2022-10-31T08:33:16;17.20;;;12.77;;
53108;SDS011;39007;53.090;6.074;2022-10-31T08:35:43;14.90;;;12.02;;
53108;SDS011;39007;53.090;6.074;2022-10-31T08:38:10;16.90;;;12.95;;
53108;SDS011;39007;53.090;6.074;2022-10-31T08:40:36;16.83;;;12.15;;
53108;SDS011;39007;53.090;6.074;2022-10-31T08:43:03;16.98;;;12.68;;
53108;SDS011;39007;53.090;6.074;2022-10-31T08:45:30;15.07;;;12.07;;
53108;SDS011;39007;53.090;6.074;2022-10-31T08:48:00;13.65;;;11.07;;
53108;SDS011;39007;53.090;6.074;2022-10-31T08:50:27;14.52;;;11.60;;
53108;SDS011;39007;53.090;6.074;2022-10-31T08:52:59;16.30;;;11.85;;
53108;SDS011;39007;53.090;6.074;2022-10-31T08:55:25;15.57;;;11.80;;
53108;SDS011;39007;53.090;6.074;2022-10-31T08:57:55;14.13;;;10.30;;
53108;SDS011;39007;53.090;6.074;2022-10-31T09:00:21;14.30;;;11.40;;
53108;SDS011;39007;53.090;6.074;2022-10-31T09:02:47;17.95;;;11.30;;
53108;SDS011;39007;53.090;6.074;2022-10-31T09:05:13;14.38;;;10.85;;
53108;SDS011;39007;53.090;6.074;2022-10-31T09:07:39;15.32;;;10.40;;
53108;SDS011;39007;53.090;6.074;2022-10-31T09:10:05;14.18;;;9.70;;
53108;SDS011;39007;53.090;6.074;2022-10-31T09:12:32;17.30;;;11.15;;
53108;SDS011;39007;53.090;6.074;2022-10-31T09:14:58;13.48;;;10.75;;
53108;SDS011;39007;53.090;6.074;2022-10-31T09:17:25;15.25;;;10.13;;
53108;SDS011;39007;53.090;6.074;2022-10-31T09:19:52;12.23;;;9.77;;
53108;SDS011;39007;53.090;6.074;2022-10-31T09:22:18;12.60;;;10.23;;
53108;SDS011;39007;53.090;6.074;2022-10-31T09:24:44;13.05;;;10.18;;
53108;SDS011;39007;53.090;6.074;2022-10-31T09:27:10;14.30;;;10.10;;
53108;SDS011;39007;53.090;6.074;2022-10-31T09:29:36;14.40;;;10.60;;
53108;SDS011;39007;53.090;6.074;2022-10-31T09:32:02;12.27;;;9.95;;
53108;SDS011;39007;53.090;6.074;2022-10-31T09:34:28;13.05;;;10.20;;
53108;SDS011;39007;53.090;6.074;2022-10-31T09:36:54;12.80;;;9.40;;
53108;SDS011;39007;53.090;6.074;2022-10-31T09:39:20;14.65;;;9.70;;
53108;SDS011;39007;53.090;6.074;2022-10-31T09:44:27;12.48;;;9.30;;
53108;SDS011;39007;53.090;6.074;2022-10-31T09:49:33;14.07;;;9.52;;
53108;SDS011;39007;53.090;6.074;2022-10-31T09:52:01;14.13;;;9.25;;
53108;SDS011;39007;53.090;6.074;2022-10-31T09:54:34;12.60;;;9.38;;
53108;SDS011;39007;53.090;6.074;2022-10-31T09:57:01;12.73;;;9.55;;
53108;SDS011;39007;53.090;6.074;2022-10-31T09:59:29;12.57;;;9.25;;
53108;SDS011;39007;53.090;6.074;2022-10-31T10:02:04;14.45;;;9.27;;
53108;SDS011;39007;53.090;6.074;2022-10-31T10:04:38;15.45;;;9.05;;
53108;SDS011;39007;53.090;6.074;2022-10-31T10:07:19;14.80;;;9.32;;
53108;SDS011;39007;53.090;6.074;2022-10-31T10:09:48;13.90;;;9.25;;
53108;SDS011;39007;53.090;6.074;2022-10-31T10:24:59;16.25;;;10.50;;
53108;SDS011;39007;53.090;6.074;2022-10-31T10:32:50;19.63;;;10.57;;
53108;SDS011;39007;53.090;6.074;2022-10-31T10:35:24;15.45;;;10.60;;
53108;SDS011;39007;53.090;6.074;2022-10-31T10:38:10;16.50;;;10.63;;
53108;SDS011;39007;53.090;6.074;2022-10-31T10:40:37;17.00;;;10.57;;
53108;SDS011;39007;53.090;6.074;2022-10-31T10:51:33;18.20;;;10.75;;
53108;SDS011;39007;53.090;6.074;2022-10-31T10:54:03;16.55;;;10.80;;
53108;SDS011;39007;53.090;6.074;2022-10-31T10:56:54;19.33;;;10.43;;
53108;SDS011;39007;53.090;6.074;2022-10-31T10:59:22;15.57;;;10.23;;
53108;SDS011;39007;53.090;6.074;2022-10-31T11:01:49;14.45;;;9.25;;
53108;SDS011;39007;53.090;6.074;2022-10-31T11:06:45;17.10;;;9.80;;
53108;SDS011;39007;53.090;6.074;2022-10-31T11:09:21;16.63;;;10.00;;
53108;SDS011;39007;53.090;6.074;2022-10-31T11:11:47;15.52;;;10.60;;
53108;SDS011;39007;53.090;6.074;2022-10-31T11:14:15;13.98;;;9.88;;
53108;SDS011;39007;53.090;6.074;2022-10-31T11:16:43;16.83;;;10.48;;
53108;SDS011;39007;53.090;6.074;2022-10-31T11:21:40;19.27;;;11.65;;
53108;SDS011;39007;53.090;6.074;2022-10-31T11:26:38;18.75;;;11.60;;
53108;SDS011;39007;53.090;6.074;2022-10-31T11:29:05;20.33;;;12.65;;
53108;SDS011;39007;53.090;6.074;2022-10-31T11:31:35;17.55;;;13.10;;
53108;SDS011;39007;53.090;6.074;2022-10-31T11:34:03;22.48;;;13.27;;
53108;SDS011;39007;53.090;6.074;2022-10-31T11:36:37;19.48;;;14.05;;
53108;SDS011;39007;53.090;6.074;2022-10-31T11:39:04;22.38;;;14.50;;
53108;SDS011;39007;53.090;6.074;2022-10-31T11:41:32;20.45;;;14.20;;
53108;SDS011;39007;53.090;6.074;2022-10-31T11:44:00;22.05;;;13.88;;
53108;SDS011;39007;53.090;6.074;2022-10-31T11:48:59;19.85;;;14.13;;
53108;SDS011;39007;53.090;6.074;2022-10-31T11:51:26;17.38;;;12.48;;
53108;SDS011;39007;53.090;6.074;2022-10-31T11:53:58;15.77;;;11.45;;
53108;SDS011;39007;53.090;6.074;2022-10-31T11:56:24;17.00;;;11.70;;
53108;SDS011;39007;53.090;6.074;2022-10-31T11:58:54;14.75;;;9.90;;
53108;SDS011;39007;53.090;6.074;2022-10-31T12:01:23;14.73;;;9.27;;
53108;SDS011;39007;53.090;6.074;2022-10-31T12:04:02;15.13;;;9.38;;
53108;SDS011;39007;53.090;6.074;2022-10-31T12:06:34;13.88;;;8.45;;
53108;SDS011;39007;53.090;6.074;2022-10-31T12:09:00;17.00;;;8.55;;
53108;SDS011;39007;53.090;6.074;2022-10-31T12:19:11;14.85;;;8.23;;
53108;SDS011;39007;53.090;6.074;2022-10-31T12:24:34;15.07;;;6.88;;
53108;SDS011;39007;53.090;6.074;2022-10-31T12:29:44;12.50;;;6.85;;
53108;SDS011;39007;53.090;6.074;2022-10-31T12:35:02;16.10;;;7.38;;
53108;SDS011;39007;53.090;6.074;2022-10-31T12:40:07;13.38;;;7.72;;
53108;SDS011;39007;53.090;6.074;2022-10-31T12:45:52;12.00;;;7.43;;
53108;SDS011;39007;53.090;6.074;2022-10-31T12:50:37;14.45;;;7.32;;
53108;SDS011;39007;53.090;6.074;2022-10-31T12:58:30;17.58;;;8.75;;
53108;SDS011;39007;53.090;6.074;2022-10-31T13:01:06;15.70;;;8.40;;
53108;SDS011;39007;53.090;6.074;2022-10-31T13:03:35;17.13;;;9.32;;
53108;SDS011;39007;53.090;6.074;2022-10-31T13:06:08;16.25;;;8.48;;
53108;SDS011;39007;53.090;6.074;2022-10-31T13:08:43;12.75;;;8.77;;
53108;SDS011;39007;53.090;6.074;2022-10-31T13:11:12;16.65;;;8.98;;
53108;SDS011;39007;53.090;6.074;2022-10-31T13:16:20;13.07;;;8.40;;
53108;SDS011;39007;53.090;6.074;2022-10-31T13:21:25;15.85;;;9.10;;
53108;SDS011;39007;53.090;6.074;2022-10-31T13:23:52;13.65;;;8.07;;
53108;SDS011;39007;53.090;6.074;2022-10-31T13:26:27;13.93;;;7.57;;
53108;SDS011;39007;53.090;6.074;2022-10-31T13:29:21;12.60;;;7.80;;
53108;SDS011;39007;53.090;6.074;2022-10-31T13:31:45;12.35;;;7.35;;
53108;SDS011;39007;53.090;6.074;2022-10-31T13:34:18;14.63;;;7.10;;
53108;SDS011;39007;53.090;6.074;2022-10-31T13:36:47;11.15;;;6.60;;
53108;SDS011;39007;53.090;6.074;2022-10-31T13:39:21;12.32;;;6.18;;
53108;SDS011;39007;53.090;6.074;2022-10-31T13:41:51;12.10;;;6.18;;
53108;SDS011;39007;53.090;6.074;2022-10-31T13:44:22;14.15;;;6.30;;
53108;SDS011;39007;53.090;6.074;2022-10-31T13:46:49;10.05;;;5.50;;
53108;SDS011;39007;53.090;6.074;2022-10-31T13:54:56;11.77;;;5.90;;
53108;SDS011;39007;53.090;6.074;2022-10-31T13:57:25;14.75;;;5.88;;
53108;SDS011;39007;53.090;6.074;2022-10-31T13:59:54;12.30;;;5.95;;
53108;SDS011;39007;53.090;6.074;2022-10-31T14:02:31;12.55;;;5.88;;
53108;SDS011;39007;53.090;6.074;2022-10-31T14:05:06;12.10;;;4.90;;
53108;SDS011;39007;53.090;6.074;2022-10-31T14:07:43;12.13;;;5.55;;
53108;SDS011;39007;53.090;6.074;2022-10-31T14:15:34;13.18;;;5.10;;
53108;SDS011;39007;53.090;6.074;2022-10-31T14:18:02;11.77;;;4.53;;
53108;SDS011;39007;53.090;6.074;2022-10-31T14:20:37;8.50;;;4.07;;
53108;SDS011;39007;53.090;6.074;2022-10-31T14:23:10;12.85;;;4.45;;
53108;SDS011;39007;53.090;6.074;2022-10-31T14:25:37;9.68;;;4.07;;
53108;SDS011;39007;53.090;6.074;2022-10-31T14:28:17;11.80;;;4.07;;
53108;SDS011;39007;53.090;6.074;2022-10-31T14:30:51;13.77;;;5.07;;
53108;SDS011;39007;53.090;6.074;2022-10-31T14:33:18;11.18;;;3.90;;
53108;SDS011;39007;53.090;6.074;2022-10-31T14:40:42;11.45;;;3.75;;
53108;SDS011;39007;53.090;6.074;2022-10-31T14:50:53;11.52;;;3.63;;
53108;SDS011;39007;53.090;6.074;2022-10-31T14:55:50;10.73;;;4.05;;
53108;SDS011;39007;53.090;6.074;2022-10-31T14:58:24;10.23;;;3.40;;
53108;SDS011;39007;53.090;6.074;2022-10-31T15:00:53;9.45;;;3.55;;
53108;SDS011;39007;53.090;6.074;2022-10-31T15:05:52;9.30;;;3.40;;
53108;SDS011;39007;53.090;6.074;2022-10-31T15:08:39;13.02;;;3.60;;
53108;SDS011;39007;53.090;6.074;2022-10-31T15:11:09;9.48;;;3.17;;
53108;SDS011;39007;53.090;6.074;2022-10-31T15:13:40;10.18;;;3.55;;
53108;SDS011;39007;53.090;6.074;2022-10-31T15:16:07;10.10;;;3.38;;
53108;SDS011;39007;53.090;6.074;2022-10-31T15:18:34;9.50;;;3.35;;
53108;SDS011;39007;53.090;6.074;2022-10-31T15:21:00;13.45;;;3.45;;
53108;SDS011;39007;53.090;6.074;2022-10-31T15:23:27;10.25;;;3.10;;
53108;SDS011;39007;53.090;6.074;2022-10-31T15:26:00;11.18;;;3.50;;
53108;SDS011;39007;53.090;6.074;2022-10-31T15:28:27;10.95;;;3.70;;
53108;SDS011;39007;53.090;6.074;2022-10-31T15:30:54;11.80;;;3.88;;
53108;SDS011;39007;53.090;6.074;2022-10-31T15:35:54;12.63;;;3.40;;
53108;SDS011;39007;53.090;6.074;2022-10-31T15:38:21;9.85;;;3.50;;
53108;SDS011;39007;53.090;6.074;2022-10-31T15:40:54;12.85;;;3.33;;
53108;SDS011;39007;53.090;6.074;2022-10-31T15:43:21;10.32;;;3.60;;
53108;SDS011;39007;53.090;6.074;2022-10-31T15:45:47;9.77;;;3.55;;
53108;SDS011;39007;53.090;6.074;2022-10-31T15:48:23;13.02;;;4.28;;
53108;SDS011;39007;53.090;6.074;2022-10-31T15:55:53;11.02;;;4.10;;
53108;SDS011;39007;53.090;6.074;2022-10-31T15:58:20;16.85;;;5.30;;
53108;SDS011;39007;53.090;6.074;2022-10-31T16:00:56;11.48;;;4.53;;
53108;SDS011;39007;53.090;6.074;2022-10-31T16:03:24;14.88;;;5.13;;
53108;SDS011;39007;53.090;6.074;2022-10-31T16:05:51;11.63;;;5.00;;
53108;SDS011;39007;53.090;6.074;2022-10-31T16:08:25;12.00;;;5.18;;
53108;SDS011;39007;53.090;6.074;2022-10-31T16:10:51;13.70;;;5.82;;
53108;SDS011;39007;53.090;6.074;2022-10-31T16:13:19;13.00;;;5.68;;
53108;SDS011;39007;53.090;6.074;2022-10-31T16:15:51;16.48;;;5.88;;
53108;SDS011;39007;53.090;6.074;2022-10-31T16:18:18;15.52;;;6.05;;
53108;SDS011;39007;53.090;6.074;2022-10-31T16:20:48;17.00;;;6.13;;
53108;SDS011;39007;53.090;6.074;2022-10-31T16:23:16;12.13;;;5.22;;
53108;SDS011;39007;53.090;6.074;2022-10-31T16:25:43;14.38;;;6.13;;
53108;SDS011;39007;53.090;6.074;2022-10-31T16:28:14;11.55;;;5.97;;
53108;SDS011;39007;53.090;6.074;2022-10-31T16:30:42;13.75;;;6.18;;
53108;SDS011;39007;53.090;6.074;2022-10-31T16:35:50;12.05;;;6.25;;
53108;SDS011;39007;53.090;6.074;2022-10-31T16:38:16;17.27;;;6.93;;
53108;SDS011;39007;53.090;6.074;2022-10-31T16:40:43;17.75;;;6.80;;
53108;SDS011;39007;53.090;6.074;2022-10-31T16:43:11;14.63;;;6.32;;
53108;SDS011;39007;53.090;6.074;2022-10-31T16:45:41;13.57;;;6.65;;
53108;SDS011;39007;53.090;6.074;2022-10-31T16:48:15;11.57;;;6.43;;
53108;SDS011;39007;53.090;6.074;2022-10-31T16:50:42;14.43;;;6.53;;
53108;SDS011;39007;53.090;6.074;2022-10-31T16:53:09;20.08;;;7.53;;